Time;durP1;ratioP1;P1;durP2;ratioP2;P2;SDS_P1;SDS_P2;PMS_P1;PMS_P2;Temp;Humidity;BMP_temperature;BMP_pressure;BME280_temperature;BME280_humidity;BME280_pressure;Samples;Min_cycle;Max_cycle;Signal;HPM_P1;HPM_P2
2022/08/28 00:01:31;;;;;;;10.45;3.05;;;16.50;99.90;;;;;;5060880;28;20064;-68
2022/08/28 00:03:58;;;;;;;10.27;3.15;;;16.50;99.90;;;;;;5036444;28;20045;-68
2022/08/28 00:06:24;;;;;;;15.13;3.33;;;16.50;99.90;;;;;;5063051;28;20048;-68
2022/08/28 00:08:50;;;;;;;15.75;3.22;;;16.60;99.90;;;;;;5052475;28;20099;-68
2022/08/28 00:11:16;;;;;;;13.00;3.50;;;16.40;99.90;;;;;;5058701;28;20045;-68
2022/08/28 00:13:41;;;;;;;12.27;3.28;;;16.40;99.90;;;;;;5043259;28;20132;-68
2022/08/28 00:16:07;;;;;;;8.93;3.30;;;17.10;99.90;;;;;;5045166;28;20063;-69
2022/08/28 00:18:33;;;;;;;15.13;2.90;;;16.30;99.90;;;;;;5051978;28;20099;-69
2022/08/28 00:20:59;;;;;;;11.30;3.33;;;16.30;99.90;;;;;;5066363;28;20052;-68
2022/08/28 00:23:25;;;;;;;12.50;3.30;;;16.30;99.90;;;;;;5052367;28;20045;-68
2022/08/28 00:25:51;;;;;;;16.77;3.55;;;16.20;99.90;;;;;;5080619;28;20048;-68
2022/08/28 00:28:16;;;;;;;9.38;2.70;;;16.30;99.90;;;;;;5055267;28;20151;-69
2022/08/28 00:30:54;;;;;;;9.70;2.97;;;16.20;99.90;;;;;;5053985;28;20048;-68
2022/08/28 00:33:31;;;;;;;11.07;3.17;;;16.30;99.90;;;;;;5053839;28;20168;-69
2022/08/28 00:35:58;;;;;;;8.57;3.17;;;16.50;99.90;;;;;;5050599;28;20379;-69
2022/08/28 00:38:25;;;;;;;10.38;3.30;;;16.20;99.90;;;;;;5052321;28;20041;-69
2022/08/28 00:40:54;;;;;;;14.00;3.83;;;16.20;99.90;;;;;;5048975;28;20053;-69
2022/08/28 00:43:32;;;;;;;12.18;3.05;;;16.30;99.90;;;;;;5051851;28;20472;-69
2022/08/28 00:45:59;;;;;;;15.90;3.42;;;16.20;99.90;;;;;;5055473;28;20440;-69
2022/08/28 00:48:25;;;;;;;8.75;3.25;;;16.20;99.90;;;;;;5061784;28;20090;-69
2022/08/28 00:53:35;;;;;;;10.75;3.22;;;16.10;99.90;;;;;;5040153;28;20084;-69
2022/08/28 00:56:05;;;;;;;8.65;3.10;;;16.10;99.90;;;;;;5050784;28;20080;-68
2022/08/28 00:58:32;;;;;;;11.05;2.95;;;16.10;99.90;;;;;;5068312;28;20045;-69
2022/08/28 01:00:59;;;;;;;12.60;3.42;;;16.10;99.90;;;;;;5064558;28;20098;-69
2022/08/28 01:03:26;;;;;;;8.15;3.10;;;16.00;99.90;;;;;;5073751;28;20066;-69
2022/08/28 01:05:52;;;;;;;9.65;3.40;;;16.10;99.90;;;;;;5044588;28;20173;-69
2022/08/28 01:08:18;;;;;;;12.98;3.63;;;16.00;99.90;;;;;;5064552;28;20032;-69
2022/08/28 01:10:49;;;;;;;10.73;3.30;;;16.00;99.90;;;;;;5057724;28;20500;-69
2022/08/28 01:13:16;;;;;;;10.82;3.10;;;16.00;99.90;;;;;;5075799;28;20037;-69
2022/08/28 01:15:42;;;;;;;13.60;3.58;;;16.00;99.90;;;;;;5052080;28;20076;-69
2022/08/28 01:18:11;;;;;;;14.00;3.20;;;16.00;99.90;;;;;;5066760;28;20064;-69
2022/08/28 01:20:42;;;;;;;10.50;3.15;;;16.00;99.90;;;;;;5063187;28;20454;-69
2022/08/28 01:23:41;;;;;;;12.00;3.20;;;16.10;99.90;;;;;;5063557;28;20087;-69
2022/08/28 01:26:07;;;;;;;10.63;3.60;;;15.90;99.90;;;;;;5054143;28;20048;-69
2022/08/28 01:28:32;;;;;;;12.15;2.90;;;15.90;99.90;;;;;;5050712;28;20145;-69
2022/08/28 01:30:58;;;;;;;10.65;3.10;;;16.30;99.90;;;;;;5058347;28;20037;-68
2022/08/28 01:33:24;;;;;;;13.70;3.20;;;15.90;99.90;;;;;;5044154;28;20040;-68
2022/08/28 01:35:49;;;;;;;9.50;2.80;;;15.80;99.90;;;;;;5075462;28;20048;-69
2022/08/28 01:38:16;;;;;;;10.13;3.10;;;15.80;99.90;;;;;;5075106;28;20071;-68
2022/08/28 01:40:46;;;;;;;8.50;2.75;;;15.90;99.90;;;;;;5075447;28;20053;-68
2022/08/28 01:43:17;;;;;;;11.50;3.03;;;15.80;99.90;;;;;;5074468;28;20059;-69
2022/08/28 01:45:51;;;;;;;11.35;3.20;;;16.00;99.90;;;;;;5061414;28;20041;-69
2022/08/28 01:48:19;;;;;;;9.98;3.17;;;15.80;99.90;;;;;;5063842;28;20093;-68
2022/08/28 01:50:45;;;;;;;10.52;3.08;;;15.80;99.90;;;;;;5074760;28;20499;-68
2022/08/28 01:53:14;;;;;;;8.65;2.90;;;15.80;99.90;;;;;;5074407;28;20044;-68
2022/08/28 01:55:42;;;;;;;14.30;3.42;;;15.80;99.90;;;;;;5054402;28;20105;-69
2022/08/28 01:58:08;;;;;;;9.77;3.10;;;15.70;99.90;;;;;;5077278;28;20068;-69
2022/08/28 02:00:34;;;;;;;11.05;3.17;;;15.80;99.90;;;;;;5054499;28;20431;-69
2022/08/28 02:03:00;;;;;;;10.30;2.90;;;15.70;99.90;;;;;;5059154;28;20082;-68
2022/08/28 02:05:29;;;;;;;9.38;2.45;;;15.70;99.90;;;;;;5069958;28;20040;-69
2022/08/28 02:07:56;;;;;;;10.27;2.90;;;15.70;99.90;;;;;;5043486;28;20041;-68
2022/08/28 02:10:24;;;;;;;10.45;2.90;;;15.70;99.90;;;;;;5041914;28;20052;-69
2022/08/28 02:12:51;;;;;;;10.10;2.78;;;16.10;99.90;;;;;;5064697;28;20044;-69
2022/08/28 02:15:17;;;;;;;7.10;2.65;;;15.60;99.90;;;;;;5052802;28;20045;-69
2022/08/28 02:17:43;;;;;;;9.25;2.53;;;15.70;99.90;;;;;;5056457;28;20066;-69
2022/08/28 02:20:09;;;;;;;10.32;2.90;;;15.60;99.90;;;;;;5068351;28;20033;-70
2022/08/28 02:22:35;;;;;;;9.05;2.75;;;15.60;99.90;;;;;;5056896;28;20088;-70
2022/08/28 02:25:02;;;;;;;11.10;3.00;;;15.70;99.90;;;;;;5056499;28;20061;-69
2022/08/28 02:27:28;;;;;;;11.02;2.95;;;15.60;99.90;;;;;;5054749;28;20081;-69
2022/08/28 02:29:54;;;;;;;9.88;2.80;;;15.90;99.90;;;;;;5065731;28;20079;-69
2022/08/28 02:32:20;;;;;;;7.78;2.67;;;15.60;99.90;;;;;;5073556;28;20071;-69
2022/08/28 02:34:45;;;;;;;6.95;2.60;;;15.60;99.90;;;;;;5074063;28;20033;-69
2022/08/28 02:37:12;;;;;;;13.70;2.88;;;15.50;99.90;;;;;;5074223;28;20040;-69
2022/08/28 02:39:38;;;;;;;11.43;2.67;;;15.60;99.90;;;;;;5074085;28;20101;-69
2022/08/28 02:42:04;;;;;;;9.48;2.63;;;16.40;99.90;;;;;;5065900;28;20056;-69
2022/08/28 02:44:30;;;;;;;9.73;2.65;;;15.60;99.90;;;;;;5073565;28;20044;-69
2022/08/28 02:46:56;;;;;;;10.85;2.70;;;15.60;99.90;;;;;;5069592;28;20044;-69
2022/08/28 02:49:22;;;;;;;13.55;2.78;;;15.60;99.90;;;;;;5058420;28;20505;-69
2022/08/28 02:51:49;;;;;;;7.78;2.35;;;15.50;99.90;;;;;;5065324;28;20116;-69
2022/08/28 02:54:15;;;;;;;5.80;2.45;;;15.50;99.90;;;;;;5057363;28;20416;-69
2022/08/28 02:56:40;;;;;;;9.70;2.53;;;15.50;99.90;;;;;;5054969;28;20124;-69
2022/08/28 02:59:06;;;;;;;9.50;2.70;;;15.60;99.90;;;;;;5060046;28;20115;-69
2022/08/28 03:01:32;;;;;;;6.93;2.50;;;15.50;99.90;;;;;;5056030;28;20079;-69
2022/08/28 03:04:01;;;;;;;7.93;2.30;;;15.50;99.90;;;;;;5072919;28;20036;-69
2022/08/28 03:06:28;;;;;;;8.02;2.40;;;15.50;99.90;;;;;;5054585;28;20041;-69
2022/08/28 03:08:54;;;;;;;12.90;2.92;;;15.80;99.90;;;;;;5058400;28;20045;-69
2022/08/28 03:11:20;;;;;;;7.55;2.60;;;15.70;99.90;;;;;;5050100;28;20049;-69
2022/08/28 03:13:46;;;;;;;12.55;2.40;;;15.50;99.90;;;;;;5053760;28;20037;-68
2022/08/28 03:16:12;;;;;;;9.30;2.35;;;15.60;99.90;;;;;;5057310;28;20039;-69
2022/08/28 03:18:38;;;;;;;10.40;2.70;;;15.60;99.90;;;;;;5050794;28;20060;-69
2022/08/28 03:21:04;;;;;;;11.68;2.50;;;15.50;99.90;;;;;;5053226;28;20401;-69
2022/08/28 03:23:30;;;;;;;7.82;2.30;;;15.50;99.90;;;;;;5051611;28;20503;-69
2022/08/28 03:26:04;;;;;;;10.32;2.80;;;15.80;99.90;;;;;;5054231;28;20041;-69
2022/08/28 03:28:38;;;;;;;12.70;2.83;;;15.60;99.90;;;;;;5029396;28;20444;-69
2022/08/28 03:31:04;;;;;;;8.98;2.38;;;15.40;99.90;;;;;;5049989;28;20428;-69
2022/08/28 03:33:30;;;;;;;7.70;2.40;;;15.50;99.90;;;;;;5063310;28;20032;-69
2022/08/28 03:35:56;;;;;;;7.70;2.55;;;15.50;99.90;;;;;;5072907;28;20037;-69
2022/08/28 03:38:22;;;;;;;10.25;2.53;;;15.50;99.90;;;;;;5072422;28;20123;-69
2022/08/28 03:40:48;;;;;;;8.70;2.50;;;15.90;99.90;;;;;;5072886;28;20141;-68
2022/08/28 03:43:17;;;;;;;8.35;2.22;;;15.60;99.90;;;;;;5051692;28;20044;-68
2022/08/28 03:46:01;;;;;;;11.60;2.33;;;15.80;99.90;;;;;;5070227;28;20164;-69
2022/08/28 03:48:29;;;;;;;8.85;2.47;;;15.70;99.90;;;;;;5071884;28;20066;-68
2022/08/28 03:50:55;;;;;;;9.02;2.40;;;15.50;99.90;;;;;;5072669;28;20495;-69
2022/08/28 03:53:22;;;;;;;9.60;2.85;;;15.50;99.90;;;;;;5069694;28;20052;-69
2022/08/28 03:55:49;;;;;;;11.55;2.78;;;15.60;99.90;;;;;;5054816;28;20044;-69
2022/08/28 03:58:15;;;;;;;9.32;2.60;;;15.50;99.90;;;;;;5071738;28;20136;-69
2022/08/28 04:00:42;;;;;;;10.38;2.40;;;16.00;99.90;;;;;;5070021;28;20054;-69
2022/08/28 04:03:11;;;;;;;8.30;2.60;;;15.50;99.90;;;;;;5070588;28;20040;-69
2022/08/28 04:05:40;;;;;;;10.43;2.80;;;15.50;99.90;;;;;;5071597;28;20048;-69
2022/08/28 04:08:06;;;;;;;8.40;2.30;;;15.50;99.90;;;;;;5064929;28;20045;-68
2022/08/28 04:10:32;;;;;;;8.18;2.63;;;15.50;99.90;;;;;;5072733;28;20048;-69
2022/08/28 04:12:59;;;;;;;8.75;2.50;;;15.50;99.90;;;;;;5059508;28;20128;-69
2022/08/28 04:15:26;;;;;;;8.07;2.50;;;16.10;99.90;;;;;;5052680;28;20048;-69
2022/08/28 04:17:52;;;;;;;8.55;2.42;;;15.50;99.90;;;;;;5069819;28;20080;-69
2022/08/28 04:20:19;;;;;;;9.18;2.75;;;15.50;99.90;;;;;;5051461;28;20091;-69
2022/08/28 04:22:46;;;;;;;6.20;2.58;;;15.50;99.90;;;;;;5052143;28;20060;-69
2022/08/28 04:25:12;;;;;;;7.13;2.42;;;15.50;99.90;;;;;;5054589;28;20056;-69
2022/08/28 04:27:38;;;;;;;8.27;2.55;;;15.50;99.90;;;;;;5072078;28;20063;-69
2022/08/28 04:30:04;;;;;;;10.50;2.47;;;15.40;99.90;;;;;;5061076;28;20094;-69
2022/08/28 04:32:32;;;;;;;8.02;2.55;;;15.50;99.90;;;;;;5053860;28;20438;-68
2022/08/28 04:34:57;;;;;;;11.40;2.83;;;15.50;99.90;;;;;;5070155;28;20040;-69
2022/08/28 04:37:23;;;;;;;11.10;2.63;;;15.50;99.90;;;;;;5054140;28;20068;-68
2022/08/28 04:39:49;;;;;;;12.73;2.92;;;15.50;99.90;;;;;;5071950;28;20048;-69
2022/08/28 04:42:14;;;;;;;8.63;2.47;;;15.50;99.90;;;;;;5071611;28;20071;-69
2022/08/28 04:44:40;;;;;;;10.43;2.92;;;15.50;99.90;;;;;;5044329;28;20095;-69
2022/08/28 04:47:06;;;;;;;10.30;2.80;;;15.50;99.90;;;;;;5070308;28;20048;-69
2022/08/28 04:49:32;;;;;;;7.38;2.40;;;15.50;99.90;;;;;;5048506;28;20059;-68
2022/08/28 04:51:58;;;;;;;10.10;2.60;;;15.50;99.90;;;;;;5072146;28;20435;-68
2022/08/28 04:54:23;;;;;;;5.65;2.28;;;15.50;99.90;;;;;;5070914;28;20055;-69
2022/08/28 04:56:49;;;;;;;9.13;2.45;;;15.60;99.90;;;;;;5069706;28;20102;-69
2022/08/28 04:59:15;;;;;;;7.88;2.60;;;15.60;99.90;;;;;;5071517;28;20053;-69
2022/08/28 05:01:41;;;;;;;7.03;2.20;;;15.60;99.90;;;;;;5049173;28;20124;-69
2022/08/28 05:04:07;;;;;;;12.15;2.67;;;15.60;99.90;;;;;;5032203;28;20033;-68
2022/08/28 05:06:33;;;;;;;15.13;2.75;;;15.60;99.90;;;;;;5032035;28;20125;-69
2022/08/28 05:09:00;;;;;;;8.05;2.20;;;15.60;99.90;;;;;;5032077;28;20045;-69
2022/08/28 05:11:28;;;;;;;13.35;2.50;;;15.90;99.90;;;;;;5032012;28;20041;-69
2022/08/28 05:13:54;;;;;;;7.22;2.22;;;16.50;99.90;;;;;;5032088;28;20068;-69
2022/08/28 05:16:21;;;;;;;8.60;2.35;;;15.60;99.90;;;;;;5056944;28;20041;-69
2022/08/28 05:18:47;;;;;;;7.45;2.20;;;15.70;99.90;;;;;;5054057;28;20044;-69
2022/08/28 05:21:15;;;;;;;8.50;2.20;;;15.70;99.90;;;;;;5070354;28;20036;-69
2022/08/28 05:23:41;;;;;;;7.28;2.15;;;15.70;99.90;;;;;;5070702;28;20037;-69
2022/08/28 05:26:12;;;;;;;8.07;2.58;;;15.70;99.90;;;;;;5072074;28;20068;-68
2022/08/28 05:28:39;;;;;;;8.65;1.98;;;15.70;99.90;;;;;;5071929;28;20032;-68
2022/08/28 05:31:09;;;;;;;7.57;2.45;;;15.70;99.90;;;;;;5071308;28;20048;-69
2022/08/28 05:33:35;;;;;;;8.10;2.20;;;15.80;99.90;;;;;;5071286;28;20036;-69
2022/08/28 05:36:04;;;;;;;8.85;2.45;;;15.80;99.90;;;;;;5071353;28;20048;-69
2022/08/28 05:38:30;;;;;;;8.45;2.25;;;15.90;99.90;;;;;;5053779;28;20154;-69
2022/08/28 05:40:55;;;;;;;13.60;2.80;;;15.90;99.90;;;;;;5071731;28;20087;-69
2022/08/28 05:43:21;;;;;;;6.88;2.30;;;16.00;99.90;;;;;;5054381;28;20251;-69
2022/08/28 05:45:58;;;;;;;7.28;2.40;;;16.00;99.90;;;;;;5056557;28;20491;-69
2022/08/28 05:48:30;;;;;;;10.15;2.53;;;16.00;99.90;;;;;;5052615;28;20033;-69
2022/08/28 05:51:20;;;;;;;8.32;1.95;;;16.10;99.90;;;;;;5054806;28;20120;-69
2022/08/28 05:53:46;;;;;;;8.20;2.20;;;16.30;99.90;;;;;;5055411;28;20452;-69
2022/08/28 05:56:14;;;;;;;7.53;2.28;;;16.40;99.90;;;;;;5056620;28;20056;-69
2022/08/28 05:58:40;;;;;;;6.05;2.00;;;16.50;99.90;;;;;;5073481;28;20450;-69
2022/08/28 06:01:12;;;;;;;10.15;2.38;;;16.50;99.90;;;;;;5073815;28;20040;-69
2022/08/28 06:03:39;;;;;;;10.52;2.20;;;16.60;99.90;;;;;;5074647;28;20048;-69
2022/08/28 06:06:06;;;;;;;6.10;2.08;;;16.70;99.90;;;;;;5053907;28;20464;-69
2022/08/28 06:08:33;;;;;;;10.32;2.60;;;16.80;99.90;;;;;;5055120;28;20041;-69
2022/08/28 06:11:01;;;;;;;7.43;2.20;;;16.90;99.90;;;;;;5061820;28;20037;-69
2022/08/28 06:13:28;;;;;;;10.23;2.38;;;16.90;99.90;;;;;;5074672;28;20044;-69
2022/08/28 06:15:54;;;;;;;10.93;2.50;;;17.00;99.90;;;;;;5074555;28;20052;-69
2022/08/28 06:18:19;;;;;;;14.10;2.83;;;17.20;99.90;;;;;;5057125;28;20433;-69
2022/08/28 06:20:46;;;;;;;7.63;2.60;;;17.00;99.90;;;;;;5074793;28;20044;-69
2022/08/28 06:23:15;;;;;;;7.05;2.13;;;17.10;99.90;;;;;;5056504;28;20036;-69
2022/08/28 06:25:47;;;;;;;8.43;2.20;;;17.10;99.90;;;;;;5074425;28;20052;-69
2022/08/28 06:28:19;;;;;;;8.90;3.22;;;17.30;99.90;;;;;;5074596;28;20048;-69
2022/08/28 06:30:45;;;;;;;11.30;2.20;;;17.20;99.90;;;;;;5055058;28;20143;-71
2022/08/28 06:33:12;;;;;;;7.20;2.00;;;17.20;99.90;;;;;;5054453;28;20507;-69
2022/08/28 06:35:46;;;;;;;8.75;2.33;;;17.20;99.90;;;;;;5047284;28;20046;-69
2022/08/28 06:38:12;;;;;;;6.93;2.17;;;17.30;99.90;;;;;;5033758;28;20062;-69
2022/08/28 06:40:40;;;;;;;7.18;2.10;;;17.30;99.90;;;;;;5047495;28;20053;-69
2022/08/28 06:43:06;;;;;;;6.20;2.08;;;17.40;99.90;;;;;;5056574;28;20134;-69
2022/08/28 06:45:32;;;;;;;8.98;2.10;;;17.40;99.90;;;;;;5056424;28;20435;-69
2022/08/28 06:47:58;;;;;;;6.93;2.05;;;17.50;99.90;;;;;;5074376;28;20054;-69
2022/08/28 06:50:23;;;;;;;7.30;1.90;;;17.50;99.90;;;;;;5074215;28;20170;-68
2022/08/28 06:52:49;;;;;;;7.53;2.05;;;17.60;99.90;;;;;;5073792;28;20044;-69
2022/08/28 06:55:15;;;;;;;8.32;2.20;;;17.70;99.90;;;;;;5073889;28;20066;-68
2022/08/28 06:57:41;;;;;;;6.60;1.83;;;17.80;99.90;;;;;;5074086;28;20048;-69
2022/08/28 07:00:07;;;;;;;16.58;2.50;;;18.00;99.90;;;;;;5073227;28;20036;-69
2022/08/28 07:02:33;;;;;;;9.45;2.30;;;18.10;99.90;;;;;;5067060;28;20386;-69
2022/08/28 07:04:59;;;;;;;8.30;1.95;;;18.10;99.90;;;;;;5053833;28;20094;-69
2022/08/28 07:07:25;;;;;;;9.63;2.45;;;18.20;99.90;;;;;;5052427;28;20119;-69
2022/08/28 07:09:50;;;;;;;8.35;1.92;;;18.10;99.90;;;;;;5053945;28;20159;-69
2022/08/28 07:12:17;;;;;;;8.43;2.10;;;18.10;99.90;;;;;;5042203;28;20056;-69
2022/08/28 07:14:43;;;;;;;10.95;2.00;;;18.10;99.90;;;;;;5038163;28;20068;-69
2022/08/28 07:17:09;;;;;;;6.85;1.95;;;18.20;99.90;;;;;;5033730;28;20095;-69
2022/08/28 07:19:35;;;;;;;9.00;2.35;;;18.10;99.90;;;;;;5033791;28;20172;-69
2022/08/28 07:22:01;;;;;;;10.20;2.33;;;18.10;99.90;;;;;;5049949;28;20516;-68
2022/08/28 07:24:28;;;;;;;11.48;2.53;;;18.10;99.90;;;;;;5053817;28;20036;-69
2022/08/28 07:26:54;;;;;;;6.82;2.10;;;18.00;99.90;;;;;;5051586;28;20071;-69
2022/08/28 07:29:20;;;;;;;8.60;2.05;;;18.00;99.90;;;;;;5063476;28;20400;-70
2022/08/28 07:31:51;;;;;;;7.72;2.30;;;18.30;99.90;;;;;;5059972;28;20047;-69
2022/08/28 07:34:19;;;;;;;6.65;2.30;;;18.20;99.90;;;;;;5069585;28;20392;-70
2022/08/28 07:36:46;;;;;;;7.78;2.10;;;18.30;99.90;;;;;;5052131;28;20047;-69
2022/08/28 07:39:13;;;;;;;7.78;2.53;;;18.40;99.90;;;;;;5052579;28;20496;-69
2022/08/28 07:41:41;;;;;;;10.15;2.10;;;18.50;99.90;;;;;;5065868;28;20143;-69
2022/08/28 07:46:59;;;;;;;8.18;2.20;;;18.70;99.90;;;;;;5053023;28;20056;-70
2022/08/28 07:49:26;;;;;;;6.03;1.90;;;18.90;99.90;;;;;;5053264;28;20067;-69
2022/08/28 07:51:52;;;;;;;4.55;1.95;;;19.00;99.90;;;;;;5051271;28;20403;-69
2022/08/28 07:54:19;;;;;;;8.38;2.10;;;19.10;99.90;;;;;;5052412;28;20029;-69
2022/08/28 07:56:46;;;;;;;6.78;2.00;;;19.30;99.90;;;;;;5066559;28;20056;-69
2022/08/28 07:59:13;;;;;;;11.30;2.50;;;19.40;99.90;;;;;;5072407;28;20479;-70
2022/08/28 08:01:41;;;;;;;5.95;2.28;;;19.40;99.90;;;;;;5052757;28;20372;-71
2022/08/28 08:04:11;;;;;;;7.68;2.13;;;19.40;99.90;;;;;;5053574;28;20076;-69
2022/08/28 08:06:38;;;;;;;9.07;2.28;;;19.40;99.90;;;;;;5049356;28;20045;-69
2022/08/28 08:09:06;;;;;;;6.10;2.10;;;19.40;99.90;;;;;;5053821;28;20048;-69
2022/08/28 08:11:32;;;;;;;11.23;2.55;;;19.50;99.90;;;;;;5057060;28;20040;-69
2022/08/28 08:14:02;;;;;;;8.60;2.60;;;19.40;99.90;;;;;;5052742;28;20053;-69
2022/08/28 08:16:28;;;;;;;9.52;2.47;;;19.40;99.90;;;;;;5045372;28;20040;-69
2022/08/28 08:18:54;;;;;;;7.93;2.13;;;19.70;99.90;;;;;;5067438;28;20503;-71
2022/08/28 08:21:21;;;;;;;8.88;1.90;;;19.50;99.90;;;;;;5070764;28;20054;-69
2022/08/28 08:23:47;;;;;;;9.27;2.20;;;19.60;99.90;;;;;;5072673;28;20382;-70
2022/08/28 08:26:16;;;;;;;8.40;2.20;;;19.80;99.90;;;;;;5071013;28;20036;-70
2022/08/28 08:28:42;;;;;;;5.00;1.98;;;20.00;99.90;;;;;;5049705;28;20045;-70
2022/08/28 08:31:15;;;;;;;8.75;2.45;;;20.10;99.90;;;;;;5050446;28;20380;-70
2022/08/28 08:33:47;;;;;;;7.07;2.08;;;20.10;99.90;;;;;;5033495;28;20049;-69
2022/08/28 08:36:15;;;;;;;9.20;2.38;;;20.30;99.90;;;;;;5061968;28;20048;-70
2022/08/28 08:38:41;;;;;;;7.88;2.15;;;20.30;99.90;;;;;;5070804;28;20400;-70
2022/08/28 08:41:20;;;;;;;8.77;2.28;;;20.30;99.90;;;;;;5053162;28;20048;-69
2022/08/28 08:44:00;;;;;;;8.05;2.30;;;20.40;99.90;;;;;;5060424;28;20040;-70
2022/08/28 08:46:33;;;;;;;6.85;2.10;;;20.40;99.90;;;;;;5054618;28;20053;-70
2022/08/28 08:49:03;;;;;;;5.50;2.25;;;20.50;99.90;;;;;;5036617;28;20044;-70
2022/08/28 08:51:53;;;;;;;8.00;2.20;;;20.70;99.90;;;;;;5034285;28;20055;-70
2022/08/28 08:54:20;;;;;;;7.85;2.67;;;20.80;99.90;;;;;;5043331;28;20049;-71
2022/08/28 08:56:46;;;;;;;8.77;2.53;;;21.00;99.90;;;;;;5051906;28;20052;-71
2022/08/28 08:59:29;;;;;;;6.63;2.33;;;21.30;99.90;;;;;;5066593;28;20162;-72
2022/08/28 09:02:06;;;;;;;6.85;2.13;;;21.50;99.90;;;;;;5071831;28;20045;-71
2022/08/28 09:04:38;;;;;;;4.43;1.80;;;21.60;99.90;;;;;;5028978;28;20389;-72
2022/08/28 09:07:46;;;;;;;4.18;1.90;;;21.80;99.90;;;;;;5053802;28;20052;-71
2022/08/28 09:10:14;;;;;;;8.38;2.22;;;21.90;99.90;;;;;;5051189;28;20037;-72
2022/08/28 09:13:23;;;;;;;8.85;2.20;;;22.00;99.90;;;;;;5053296;28;20075;-71
2022/08/28 09:15:49;;;;;;;6.93;2.20;;;22.10;99.90;;;;;;5041283;28;20049;-72
2022/08/28 09:18:24;;;;;;;6.18;2.10;;;22.20;99.90;;;;;;5063383;28;20045;-71
2022/08/28 09:20:57;;;;;;;7.05;2.17;;;22.10;99.90;;;;;;5065384;28;20392;-72
2022/08/28 09:23:24;;;;;;;6.57;2.15;;;22.20;99.90;;;;;;5050024;28;20053;-71
2022/08/28 09:25:59;;;;;;;6.72;2.53;;;22.50;99.90;;;;;;5040115;28;20393;-72
2022/08/28 09:28:37;;;;;;;7.00;1.95;;;22.80;99.70;;;;;;5047948;28;20562;-72
2022/08/28 09:31:08;;;;;;;6.13;2.05;;;23.10;98.70;;;;;;5024461;28;20089;-72
2022/08/28 09:33:36;;;;;;;5.43;2.10;;;23.40;98.40;;;;;;5051126;28;20471;-71
2022/08/28 09:36:28;;;;;;;6.00;2.30;;;23.50;98.30;;;;;;5054750;28;20045;-72
2022/08/28 09:39:17;;;;;;;6.72;2.08;;;23.80;97.60;;;;;;5053652;28;20051;-72
2022/08/28 09:45:00;;;;;;;6.95;2.30;;;24.00;97.30;;;;;;5054143;28;20049;-72
2022/08/28 09:47:39;;;;;;;6.20;2.17;;;24.20;96.80;;;;;;5054136;28;20090;-72
2022/08/28 09:50:20;;;;;;;7.00;2.10;;;24.40;96.30;;;;;;5054581;28;20033;-72
2022/08/28 09:52:45;;;;;;;6.45;1.92;;;24.90;95.80;;;;;;5062195;28;20062;-71
2022/08/28 09:55:18;;;;;;;5.63;2.10;;;25.20;95.30;;;;;;5075359;28;20432;-72
2022/08/28 09:57:48;;;;;;;7.32;2.25;;;25.60;95.30;;;;;;5034922;28;20048;-72
2022/08/28 10:00:14;;;;;;;7.15;2.47;;;25.70;95.10;;;;;;5033337;28;20044;-71
2022/08/28 10:03:06;;;;;;;8.55;2.13;;;25.90;95.00;;;;;;5051243;28;20045;-72
2022/08/28 10:05:40;;;;;;;9.95;2.78;;;25.90;95.00;;;;;;5054727;28;20052;-72
2022/08/28 10:08:20;;;;;;;8.18;2.35;;;25.50;95.30;;;;;;5043836;28;20056;-72
2022/08/28 10:10:54;;;;;;;7.18;2.47;;;25.00;95.50;;;;;;5043404;28;20049;-72
2022/08/28 10:13:27;;;;;;;8.30;2.30;;;24.70;95.40;;;;;;5062949;28;20049;-72
2022/08/28 10:16:08;;;;;;;7.80;2.33;;;24.40;96.00;;;;;;5054778;28;20095;-72
2022/08/28 10:18:55;;;;;;;6.03;2.03;;;24.00;96.30;;;;;;5057841;28;20059;-72
2022/08/28 10:21:21;;;;;;;6.45;2.00;;;23.70;95.50;;;;;;5052182;28;20093;-72
2022/08/28 10:24:07;;;;;;;10.52;2.20;;;23.80;95.80;;;;;;5048444;28;20509;-72
2022/08/28 10:26:51;;;;;;;5.68;2.47;;;24.10;96.30;;;;;;5042971;28;20053;-72
2022/08/28 10:29:34;;;;;;;6.13;2.20;;;24.40;96.50;;;;;;5040356;28;20045;-72
2022/08/28 10:32:30;;;;;;;5.82;2.28;;;24.50;96.00;;;;;;5045379;28;20048;-72
2022/08/28 10:34:59;;;;;;;5.93;2.00;;;24.50;95.90;;;;;;5052501;28;20091;-71
2022/08/28 10:37:27;;;;;;;7.15;2.33;;;24.90;94.70;;;;;;5049890;28;20048;-72
2022/08/28 10:39:59;;;;;;;7.95;2.13;;;25.10;94.60;;;;;;5054044;28;20048;-72
2022/08/28 10:43:05;;;;;;;6.85;2.08;;;25.40;94.00;;;;;;5049773;28;20104;-70
2022/08/28 10:45:33;;;;;;;7.57;2.10;;;25.80;93.40;;;;;;4994619;28;20463;-71
2022/08/28 10:48:30;;;;;;;6.55;1.98;;;26.30;93.40;;;;;;5033800;28;20037;-70
2022/08/28 10:51:04;;;;;;;7.90;2.10;;;26.80;93.10;;;;;;5032536;28;20503;-70
2022/08/28 10:53:42;;;;;;;5.13;1.92;;;26.60;92.80;;;;;;5031632;28;20049;-70
2022/08/28 10:56:15;;;;;;;6.03;2.10;;;26.20;92.90;;;;;;5032461;28;20041;-70
2022/08/28 10:58:40;;;;;;;6.75;2.22;;;25.60;93.10;;;;;;5032031;28;20561;-70
2022/08/28 11:01:13;;;;;;;6.22;2.20;;;25.30;93.70;;;;;;5033652;28;20080;-70
2022/08/28 11:03:46;;;;;;;8.57;2.15;;;25.10;94.00;;;;;;5033779;28;20041;-70
2022/08/28 11:06:27;;;;;;;6.85;2.00;;;24.90;93.90;;;;;;5033874;28;20046;-70
2022/08/28 11:08:56;;;;;;;6.38;2.20;;;24.80;93.70;;;;;;5034176;28;20072;-70
2022/08/28 11:11:46;;;;;;;8.00;2.20;;;24.80;94.20;;;;;;5048726;28;20060;-70
2022/08/28 11:14:41;;;;;;;5.97;2.05;;;25.00;93.90;;;;;;5048987;28;20043;-70
2022/08/28 11:17:10;;;;;;;5.43;2.00;;;25.00;93.40;;;;;;5028093;28;20049;-70
2022/08/28 11:19:41;;;;;;;6.88;2.10;;;25.20;93.20;;;;;;5033414;28;20422;-70
2022/08/28 11:22:22;;;;;;;6.43;2.13;;;25.50;92.90;;;;;;5033218;28;20049;-70
2022/08/28 11:24:51;;;;;;;6.68;2.50;;;26.00;92.30;;;;;;5048944;28;20455;-70
2022/08/28 11:27:26;;;;;;;6.70;1.88;;;26.60;91.90;;;;;;5033513;28;20041;-70
2022/08/28 11:30:24;;;;;;;7.90;2.22;;;27.40;91.00;;;;;;5032578;28;20033;-68
2022/08/28 11:32:49;;;;;;;9.38;2.25;;;27.50;90.30;;;;;;5045590;28;20051;-69
2022/08/28 11:35:36;;;;;;;8.35;2.10;;;27.30;90.10;;;;;;5032016;28;20128;-68
2022/08/28 11:38:02;;;;;;;5.70;2.35;;;27.10;90.70;;;;;;5031576;28;20497;-69
2022/08/28 11:40:33;;;;;;;7.43;2.13;;;27.00;90.70;;;;;;5031502;28;20107;-69
2022/08/28 11:43:14;;;;;;;5.50;2.08;;;27.00;90.40;;;;;;5032369;28;20132;-69
2022/08/28 11:45:45;;;;;;;5.03;1.80;;;27.10;90.50;;;;;;5033280;28;20125;-69
2022/08/28 11:48:36;;;;;;;7.18;2.20;;;27.10;90.40;;;;;;5033215;28;20048;-69
2022/08/28 11:51:26;;;;;;;6.15;2.42;;;27.20;90.30;;;;;;5015094;28;20057;-69
2022/08/28 11:54:42;;;;;;;7.70;2.30;;;27.40;90.10;;;;;;5032589;28;20037;-68
2022/08/28 11:57:24;;;;;;;7.68;2.20;;;27.10;90.30;;;;;;4997641;28;20106;-69
2022/08/28 11:59:53;;;;;;;7.07;2.00;;;27.30;90.00;;;;;;5014866;28;20045;-69
2022/08/28 12:02:42;;;;;;;5.35;2.20;;;28.10;90.00;;;;;;5032494;28;20493;-69
2022/08/28 12:05:13;;;;;;;5.20;2.00;;;28.80;88.90;;;;;;5015058;28;20103;-69
2022/08/28 12:07:47;;;;;;;6.35;2.20;;;29.20;89.20;;;;;;5031699;28;20041;-69
2022/08/28 12:10:19;;;;;;;5.72;2.15;;;30.50;87.80;;;;;;5032974;28;20058;-69
2022/08/28 12:12:45;;;;;;;7.32;1.80;;;31.80;85.60;;;;;;5032284;28;20096;-69
2022/08/28 12:15:31;;;;;;;6.55;2.05;;;33.80;78.40;;;;;;5032326;28;20046;-69
2022/08/28 12:18:04;;;;;;;8.07;1.90;;;35.60;76.80;;;;;;5032351;28;20128;-69
2022/08/28 12:20:40;;;;;;;6.85;2.08;;;36.60;73.40;;;;;;5030604;28;20489;-69
2022/08/28 12:23:33;;;;;;;4.55;1.92;;;36.00;71.00;;;;;;5031822;28;20056;-69
2022/08/28 12:26:14;;;;;;;6.05;2.10;;;34.10;71.80;;;;;;5032389;28;20559;-69
2022/08/28 12:28:50;;;;;;;8.13;2.20;;;32.50;72.60;;;;;;5032100;28;20045;-69
2022/08/28 12:32:10;;;;;;;7.70;2.17;;;32.70;73.00;;;;;;5032398;28;20041;-69
2022/08/28 12:34:40;;;;;;;3.75;1.67;;;32.80;72.00;;;;;;5032512;28;20477;-69
2022/08/28 12:37:20;;;;;;;5.47;1.70;;;31.90;72.50;;;;;;5014198;28;20465;-69
2022/08/28 12:39:45;;;;;;;8.23;1.75;;;30.70;73.40;;;;;;5032245;28;20119;-69
2022/08/28 12:42:17;;;;;;;5.85;2.13;;;30.10;73.60;;;;;;5013971;28;20128;-69
2022/08/28 12:44:43;;;;;;;7.93;2.13;;;29.40;75.00;;;;;;5032134;28;20041;-69
2022/08/28 12:47:17;;;;;;;4.75;2.10;;;28.40;76.40;;;;;;5032563;28;20410;-69
2022/08/28 12:49:43;;;;;;;6.88;2.17;;;27.90;77.70;;;;;;5031384;28;20045;-69
2022/08/28 12:52:17;;;;;;;8.10;2.10;;;27.70;78.90;;;;;;5032300;28;20346;-70
2022/08/28 12:54:45;;;;;;;3.83;1.77;;;27.30;79.80;;;;;;5035258;28;20041;-70
2022/08/28 12:57:15;;;;;;;8.02;1.90;;;27.00;80.60;;;;;;5035555;28;20037;-69
2022/08/28 12:59:46;;;;;;;5.85;1.73;;;26.60;81.50;;;;;;5036230;28;20040;-69
2022/08/28 13:02:20;;;;;;;6.30;2.05;;;26.40;82.50;;;;;;5035717;28;20037;-69
2022/08/28 13:04:59;;;;;;;5.00;1.90;;;26.20;84.00;;;;;;5035016;28;20048;-70
2022/08/28 13:07:29;;;;;;;10.85;2.10;;;26.20;84.80;;;;;;5035478;28;20047;-69
2022/08/28 13:10:02;;;;;;;6.28;1.90;;;26.00;85.10;;;;;;5018088;28;20033;-69